sensor_id;sensor_type;location;lat;lon;timestamp;pressure;altitude;pressure_sealevel;temperature;humidity
23616;BME280;11985;49.404;7.734;2024-02-23T00:00:59;95179.91;;;4.63;100.00
23616;BME280;11985;49.404;7.734;2024-02-23T00:06:00;95190.78;;;4.60;100.00
23616;BME280;11985;49.404;7.734;2024-02-23T00:11:05;95208.44;;;4.58;100.00
23616;BME280;11985;49.404;7.734;2024-02-23T00:16:06;95220.13;;;4.56;100.00
23616;BME280;11985;49.404;7.734;2024-02-23T00:21:08;95212.56;;;4.47;100.00
23616;BME280;11985;49.404;7.734;2024-02-23T00:26:11;95219.03;;;4.45;100.00
23616;BME280;11985;49.404;7.734;2024-02-23T00:31:13;95216.84;;;4.42;100.00
23616;BME280;11985;49.404;7.734;2024-02-23T00:36:15;95235.66;;;4.44;100.00
23616;BME280;11985;49.404;7.734;2024-02-23T00:41:18;95227.84;;;4.44;100.00
23616;BME280;11985;49.404;7.734;2024-02-23T00:46:19;95227.91;;;4.37;100.00
23616;BME280;11985;49.404;7.734;2024-02-23T00:51:21;95230.97;;;4.34;100.00
23616;BME280;11985;49.404;7.734;2024-02-23T00:56:27;95307.84;;;4.00;100.00
23616;BME280;11985;49.404;7.734;2024-02-23T01:01:29;95314.97;;;2.25;100.00
23616;BME280;11985;49.404;7.734;2024-02-23T01:06:33;95318.75;;;1.63;100.00
23616;BME280;11985;49.404;7.734;2024-02-23T01:11:36;95321.50;;;1.35;100.00
23616;BME280;11985;49.404;7.734;2024-02-23T01:16:38;95325.09;;;1.34;100.00
23616;BME280;11985;49.404;7.734;2024-02-23T01:21:39;95317.69;;;1.31;100.00
23616;BME280;11985;49.404;7.734;2024-02-23T01:26:42;95323.09;;;1.36;100.00
23616;BME280;11985;49.404;7.734;2024-02-23T01:31:44;95339.47;;;1.50;100.00
23616;BME280;11985;49.404;7.734;2024-02-23T01:36:46;95340.69;;;1.61;100.00
23616;BME280;11985;49.404;7.734;2024-02-23T01:41:49;95345.88;;;1.61;100.00
23616;BME280;11985;49.404;7.734;2024-02-23T01:46:51;95341.09;;;1.64;100.00
23616;BME280;11985;49.404;7.734;2024-02-23T01:51:52;95352.69;;;1.68;100.00
23616;BME280;11985;49.404;7.734;2024-02-23T01:56:56;95353.72;;;1.74;100.00
23616;BME280;11985;49.404;7.734;2024-02-23T02:02:00;95363.28;;;1.80;100.00
23616;BME280;11985;49.404;7.734;2024-02-23T02:07:04;95361.91;;;1.91;100.00
23616;BME280;11985;49.404;7.734;2024-02-23T02:12:08;95365.72;;;2.01;100.00
23616;BME280;11985;49.404;7.734;2024-02-23T02:17:10;95351.94;;;2.14;100.00
23616;BME280;11985;49.404;7.734;2024-02-23T02:22:12;95361.53;;;2.27;100.00
23616;BME280;11985;49.404;7.734;2024-02-23T02:27:14;95362.53;;;2.26;100.00
23616;BME280;11985;49.404;7.734;2024-02-23T02:32:16;95366.72;;;2.20;100.00
23616;BME280;11985;49.404;7.734;2024-02-23T02:37:18;95363.13;;;2.21;100.00
23616;BME280;11985;49.404;7.734;2024-02-23T02:42:21;95358.34;;;2.25;100.00
23616;BME280;11985;49.404;7.734;2024-02-23T02:47:22;95359.53;;;2.29;100.00
23616;BME280;11985;49.404;7.734;2024-02-23T02:52:24;95362.72;;;2.37;100.00
23616;BME280;11985;49.404;7.734;2024-02-23T02:57:27;95368.31;;;2.41;100.00
23616;BME280;11985;49.404;7.734;2024-02-23T03:02:30;95369.91;;;2.42;100.00
23616;BME280;11985;49.404;7.734;2024-02-23T03:07:31;95363.13;;;2.41;100.00
23616;BME280;11985;49.404;7.734;2024-02-23T03:12:34;95366.72;;;2.40;100.00
23616;BME280;11985;49.404;7.734;2024-02-23T03:17:36;95353.31;;;2.43;100.00
23616;BME280;11985;49.404;7.734;2024-02-23T03:22:38;95355.34;;;2.41;100.00
23616;BME280;11985;49.404;7.734;2024-02-23T03:27:40;95351.72;;;2.42;100.00
23616;BME280;11985;49.404;7.734;2024-02-23T03:32:42;95323.16;;;2.42;100.00
23616;BME280;11985;49.404;7.734;2024-02-23T03:37:44;95334.75;;;2.46;100.00
23616;BME280;11985;49.404;7.734;2024-02-23T03:42:47;95340.94;;;2.45;100.00
23616;BME280;11985;49.404;7.734;2024-02-23T03:47:48;95337.34;;;2.46;100.00
23616;BME280;11985;49.404;7.734;2024-02-23T03:52:50;95317.56;;;2.45;100.00
23616;BME280;11985;49.404;7.734;2024-02-23T03:57:53;95325.16;;;2.40;100.00
23616;BME280;11985;49.404;7.734;2024-02-23T04:02:54;95332.94;;;2.40;100.00
23616;BME280;11985;49.404;7.734;2024-02-23T04:07:56;95319.97;;;2.40;100.00
23616;BME280;11985;49.404;7.734;2024-02-23T04:12:59;95327.75;;;2.40;100.00
23616;BME280;11985;49.404;7.734;2024-02-23T04:18:01;95324.97;;;2.35;100.00
23616;BME280;11985;49.404;7.734;2024-02-23T04:23:03;95308.56;;;2.34;100.00
23616;BME280;11985;49.404;7.734;2024-02-23T04:28:06;95315.75;;;2.32;100.00
23616;BME280;11985;49.404;7.734;2024-02-23T04:33:08;95321.75;;;2.26;100.00
23616;BME280;11985;49.404;7.734;2024-02-23T04:38:09;95317.16;;;2.22;100.00
23616;BME280;11985;49.404;7.734;2024-02-23T04:43:13;95322.78;;;2.19;100.00
23616;BME280;11985;49.404;7.734;2024-02-23T04:48:15;95323.78;;;2.18;100.00
23616;BME280;11985;49.404;7.734;2024-02-23T04:53:16;95323.19;;;2.29;100.00
23616;BME280;11985;49.404;7.734;2024-02-23T04:58:19;95310.75;;;2.44;100.00
23616;BME280;11985;49.404;7.734;2024-02-23T05:03:22;95310.75;;;2.44;100.00
23616;BME280;11985;49.404;7.734;2024-02-23T05:08:23;95321.16;;;2.37;100.00
23616;BME280;11985;49.404;7.734;2024-02-23T05:13:26;95314.97;;;2.32;100.00
23616;BME280;11985;49.404;7.734;2024-02-23T05:18:28;95298.38;;;2.33;100.00
23616;BME280;11985;49.404;7.734;2024-02-23T05:23:29;95307.16;;;2.32;100.00
23616;BME280;11985;49.404;7.734;2024-02-23T05:28:32;95313.56;;;2.29;100.00
23616;BME280;11985;49.404;7.734;2024-02-23T05:33:36;95294.16;;;2.38;100.00
23616;BME280;11985;49.404;7.734;2024-02-23T05:38:38;95298.78;;;2.36;100.00
23616;BME280;11985;49.404;7.734;2024-02-23T05:43:41;95303.97;;;2.36;100.00
23616;BME280;11985;49.404;7.734;2024-02-23T05:48:43;95304.75;;;2.37;100.00
23616;BME280;11985;49.404;7.734;2024-02-23T05:53:44;95318.75;;;2.36;100.00
23616;BME280;11985;49.404;7.734;2024-02-23T05:58:47;95320.56;;;2.35;100.00
23616;BME280;11985;49.404;7.734;2024-02-23T06:03:49;95318.75;;;2.36;100.00
23616;BME280;11985;49.404;7.734;2024-02-23T06:08:51;95320.75;;;2.27;100.00
23616;BME280;11985;49.404;7.734;2024-02-23T06:13:54;95326.38;;;2.18;100.00
23616;BME280;11985;49.404;7.734;2024-02-23T06:18:55;95323.97;;;2.09;100.00
23616;BME280;11985;49.404;7.734;2024-02-23T06:23:57;95315.19;;;2.04;100.00
23616;BME280;11985;49.404;7.734;2024-02-23T06:29:00;95318.78;;;2.03;100.00
23616;BME280;11985;49.404;7.734;2024-02-23T06:34:01;95321.59;;;2.01;100.00
23616;BME280;11985;49.404;7.734;2024-02-23T06:39:03;95310.00;;;1.97;100.00
23616;BME280;11985;49.404;7.734;2024-02-23T06:44:06;95311.97;;;1.89;100.00
23616;BME280;11985;49.404;7.734;2024-02-23T06:49:08;95310.38;;;1.81;100.00
23616;BME280;11985;49.404;7.734;2024-02-23T06:54:09;95323.16;;;1.82;100.00
23616;BME280;11985;49.404;7.734;2024-02-23T06:59:12;95342.75;;;1.85;100.00
23616;BME280;11985;49.404;7.734;2024-02-23T07:04:14;95337.53;;;1.98;100.00
23616;BME280;11985;49.404;7.734;2024-02-23T07:09:15;95344.34;;;2.06;100.00
23616;BME280;11985;49.404;7.734;2024-02-23T07:14:18;95351.13;;;2.14;100.00
23616;BME280;11985;49.404;7.734;2024-02-23T07:19:22;95337.94;;;2.22;100.00
23616;BME280;11985;49.404;7.734;2024-02-23T07:24:23;95354.75;;;2.39;100.00
23616;BME280;11985;49.404;7.734;2024-02-23T07:29:26;95353.50;;;2.55;100.00
23616;BME280;11985;49.404;7.734;2024-02-23T07:34:28;95352.69;;;2.68;100.00
23616;BME280;11985;49.404;7.734;2024-02-23T07:39:30;95365.47;;;2.76;100.00
23616;BME280;11985;49.404;7.734;2024-02-23T07:44:33;95370.66;;;2.76;100.00
23616;BME280;11985;49.404;7.734;2024-02-23T07:49:34;95375.06;;;2.75;100.00
23616;BME280;11985;49.404;7.734;2024-02-23T07:54:36;95384.28;;;2.78;100.00
23616;BME280;11985;49.404;7.734;2024-02-23T07:59:39;95388.25;;;2.87;100.00
23616;BME280;11985;49.404;7.734;2024-02-23T08:04:43;95387.84;;;2.97;100.00
23616;BME280;11985;49.404;7.734;2024-02-23T08:09:44;95388.22;;;3.07;100.00
23616;BME280;11985;49.404;7.734;2024-02-23T08:14:48;95394.19;;;3.14;100.00
23616;BME280;11985;49.404;7.734;2024-02-23T08:19:53;95410.78;;;3.20;100.00
23616;BME280;11985;49.404;7.734;2024-02-23T08:24:55;95405.53;;;3.39;100.00
23616;BME280;11985;49.404;7.734;2024-02-23T08:29:58;95406.50;;;3.45;100.00
23616;BME280;11985;49.404;7.734;2024-02-23T08:35:00;95413.22;;;3.59;100.00
23616;BME280;11985;49.404;7.734;2024-02-23T08:40:03;95412.56;;;3.70;100.00
23616;BME280;11985;49.404;7.734;2024-02-23T08:45:09;95411.28;;;3.86;100.00
23616;BME280;11985;49.404;7.734;2024-02-23T08:50:12;95416.72;;;3.85;100.00
23616;BME280;11985;49.404;7.734;2024-02-23T08:55:15;95419.91;;;3.87;100.00
23616;BME280;11985;49.404;7.734;2024-02-23T09:00:23;95418.06;;;3.94;100.00
23616;BME280;11985;49.404;7.734;2024-02-23T09:05:25;95414.47;;;3.95;100.00
23616;BME280;11985;49.404;7.734;2024-02-23T09:10:26;95403.03;;;3.96;100.00
23616;BME280;11985;49.404;7.734;2024-02-23T09:15:29;95396.22;;;3.95;100.00
23616;BME280;11985;49.404;7.734;2024-02-23T09:20:31;95389.78;;;3.97;100.00
23616;BME280;11985;49.404;7.734;2024-02-23T09:25:32;95397.50;;;4.11;100.00
23616;BME280;11985;49.404;7.734;2024-02-23T09:30:36;95395.09;;;4.41;100.00
23616;BME280;11985;49.404;7.734;2024-02-23T09:35:38;95391.66;;;4.47;100.00
23616;BME280;11985;49.404;7.734;2024-02-23T09:40:40;95393.53;;;4.40;100.00
23616;BME280;11985;49.404;7.734;2024-02-23T09:45:44;95401.94;;;4.60;100.00
23616;BME280;11985;49.404;7.734;2024-02-23T09:50:47;95401.31;;;4.65;100.00
23616;BME280;11985;49.404;7.734;2024-02-23T09:55:50;95403.28;;;4.69;100.00
23616;BME280;11985;49.404;7.734;2024-02-23T10:00:58;95393.44;;;4.71;100.00
23616;BME280;11985;49.404;7.734;2024-02-23T10:06:02;95390.88;;;4.65;100.00
23616;BME280;11985;49.404;7.734;2024-02-23T10:11:05;95397.81;;;4.78;100.00
23616;BME280;11985;49.404;7.734;2024-02-23T10:16:10;95397.81;;;4.78;100.00
23616;BME280;11985;49.404;7.734;2024-02-23T10:21:11;95386.13;;;4.62;100.00
23616;BME280;11985;49.404;7.734;2024-02-23T10:26:13;95384.41;;;4.74;100.00
23616;BME280;11985;49.404;7.734;2024-02-23T10:31:21;95383.06;;;4.90;100.00
23616;BME280;11985;49.404;7.734;2024-02-23T10:36:28;95385.59;;;4.96;100.00
23616;BME280;11985;49.404;7.734;2024-02-23T10:41:31;95380.22;;;4.91;100.00
23616;BME280;11985;49.404;7.734;2024-02-23T10:46:37;95373.41;;;4.72;100.00
23616;BME280;11985;49.404;7.734;2024-02-23T10:51:41;95368.91;;;4.54;100.00
23616;BME280;11985;49.404;7.734;2024-02-23T10:56:46;95381.78;;;4.49;100.00
23616;BME280;11985;49.404;7.734;2024-02-23T11:01:51;95376.59;;;4.49;100.00
23616;BME280;11985;49.404;7.734;2024-02-23T11:06:55;95365.91;;;4.75;100.00
23616;BME280;11985;49.404;7.734;2024-02-23T11:11:58;95363.28;;;5.00;100.00
23616;BME280;11985;49.404;7.734;2024-02-23T11:17:03;95356.75;;;5.28;100.00
23616;BME280;11985;49.404;7.734;2024-02-23T11:22:08;95367.91;;;5.17;100.00
23616;BME280;11985;49.404;7.734;2024-02-23T11:27:14;95368.75;;;5.11;100.00
23616;BME280;11985;49.404;7.734;2024-02-23T11:32:19;95370.56;;;4.92;100.00
23616;BME280;11985;49.404;7.734;2024-02-23T11:37:21;95379.66;;;4.64;100.00
23616;BME280;11985;49.404;7.734;2024-02-23T11:42:23;95369.44;;;4.44;100.00
23616;BME280;11985;49.404;7.734;2024-02-23T11:47:26;95372.53;;;4.53;100.00
23616;BME280;11985;49.404;7.734;2024-02-23T11:52:27;95367.03;;;4.86;100.00
23616;BME280;11985;49.404;7.734;2024-02-23T11:57:29;95365.97;;;5.12;100.00
23616;BME280;11985;49.404;7.734;2024-02-23T12:02:35;95367.22;;;5.58;100.00
23616;BME280;11985;49.404;7.734;2024-02-23T12:07:37;95364.22;;;5.73;100.00
23616;BME280;11985;49.404;7.734;2024-02-23T12:12:40;95358.88;;;5.98;100.00
23616;BME280;11985;49.404;7.734;2024-02-23T12:17:48;95350.38;;;5.72;100.00
23616;BME280;11985;49.404;7.734;2024-02-23T12:22:50;95362.25;;;5.68;100.00
23616;BME280;11985;49.404;7.734;2024-02-23T12:27:55;95353.84;;;5.66;100.00
23616;BME280;11985;49.404;7.734;2024-02-23T12:33:04;95365.91;;;5.67;100.00
23616;BME280;11985;49.404;7.734;2024-02-23T12:38:06;95364.28;;;5.66;100.00
23616;BME280;11985;49.404;7.734;2024-02-23T12:43:08;95359.03;;;5.85;100.00
23616;BME280;11985;49.404;7.734;2024-02-23T12:48:11;95355.69;;;5.96;100.00
23616;BME280;11985;49.404;7.734;2024-02-23T12:53:30;95354.56;;;6.03;100.00
23616;BME280;11985;49.404;7.734;2024-02-23T12:58:36;95353.13;;;6.19;100.00
23616;BME280;11985;49.404;7.734;2024-02-23T13:03:40;95357.81;;;6.64;100.00
23616;BME280;11985;49.404;7.734;2024-02-23T13:08:42;95355.09;;;6.82;100.00
23616;BME280;11985;49.404;7.734;2024-02-23T13:13:44;95358.63;;;6.53;100.00
23616;BME280;11985;49.404;7.734;2024-02-23T13:18:49;95349.28;;;6.33;100.00
23616;BME280;11985;49.404;7.734;2024-02-23T13:23:52;95347.59;;;6.51;100.00
23616;BME280;11985;49.404;7.734;2024-02-23T13:28:54;95338.16;;;6.61;100.00
23616;BME280;11985;49.404;7.734;2024-02-23T13:33:57;95351.25;;;6.73;100.00
23616;BME280;11985;49.404;7.734;2024-02-23T13:38:58;95346.22;;;6.72;100.00
23616;BME280;11985;49.404;7.734;2024-02-23T13:44:00;95337.13;;;6.86;100.00
23616;BME280;11985;49.404;7.734;2024-02-23T13:49:04;95314.13;;;6.76;100.00
23616;BME280;11985;49.404;7.734;2024-02-23T13:54:06;95315.84;;;6.94;100.00
23616;BME280;11985;49.404;7.734;2024-02-23T13:59:08;95323.69;;;7.06;100.00
23616;BME280;11985;49.404;7.734;2024-02-23T14:04:15;95312.28;;;7.12;100.00
23616;BME280;11985;49.404;7.734;2024-02-23T14:09:18;95302.91;;;7.16;100.00
23616;BME280;11985;49.404;7.734;2024-02-23T14:14:21;95311.84;;;6.92;100.00
23616;BME280;11985;49.404;7.734;2024-02-23T14:19:24;95302.75;;;6.82;100.00
23616;BME280;11985;49.404;7.734;2024-02-23T14:24:25;95298.63;;;6.98;100.00
23616;BME280;11985;49.404;7.734;2024-02-23T14:29:27;95283.19;;;7.25;100.00
23616;BME280;11985;49.404;7.734;2024-02-23T14:34:30;95290.81;;;7.38;100.00
23616;BME280;11985;49.404;7.734;2024-02-23T14:39:33;95288.09;;;7.33;100.00
23616;BME280;11985;49.404;7.734;2024-02-23T14:44:35;95285.19;;;7.47;100.00
23616;BME280;11985;49.404;7.734;2024-02-23T14:49:38;95276.19;;;7.43;100.00
23616;BME280;11985;49.404;7.734;2024-02-23T14:54:39;95283.31;;;7.30;100.00
23616;BME280;11985;49.404;7.734;2024-02-23T14:59:41;95282.78;;;7.17;100.00
23616;BME280;11985;49.404;7.734;2024-02-23T15:04:48;95278.38;;;6.94;100.00
23616;BME280;11985;49.404;7.734;2024-02-23T15:09:50;95285.56;;;6.86;100.00
23616;BME280;11985;49.404;7.734;2024-02-23T15:14:51;95272.97;;;6.83;100.00
23616;BME280;11985;49.404;7.734;2024-02-23T15:19:54;95278.09;;;6.55;100.00
23616;BME280;11985;49.404;7.734;2024-02-23T15:24:56;95279.25;;;6.59;100.00
23616;BME280;11985;49.404;7.734;2024-02-23T15:29:59;95285.50;;;6.58;100.00
23616;BME280;11985;49.404;7.734;2024-02-23T15:35:03;95284.34;;;6.66;100.00
23616;BME280;11985;49.404;7.734;2024-02-23T15:40:07;95281.72;;;6.66;100.00
23616;BME280;11985;49.404;7.734;2024-02-23T15:45:11;95295.28;;;6.51;100.00
23616;BME280;11985;49.404;7.734;2024-02-23T15:50:14;95311.09;;;5.91;100.00
23616;BME280;11985;49.404;7.734;2024-02-23T15:55:16;95315.59;;;5.42;100.00
23616;BME280;11985;49.404;7.734;2024-02-23T16:00:18;95313.03;;;5.05;100.00
23616;BME280;11985;49.404;7.734;2024-02-23T16:05:21;95309.16;;;4.78;100.00
23616;BME280;11985;49.404;7.734;2024-02-23T16:10:25;95324.41;;;4.56;100.00
23616;BME280;11985;49.404;7.734;2024-02-23T16:15:27;95314.16;;;4.36;100.00
23616;BME280;11985;49.404;7.734;2024-02-23T16:20:30;95315.75;;;4.37;100.00
23616;BME280;11985;49.404;7.734;2024-02-23T16:25:33;95324.41;;;4.56;100.00
23616;BME280;11985;49.404;7.734;2024-02-23T16:30:40;95322.88;;;4.66;100.00
23616;BME280;11985;49.404;7.734;2024-02-23T16:35:44;95322.31;;;4.83;100.00
23616;BME280;11985;49.404;7.734;2024-02-23T16:40:46;95310.72;;;4.97;100.00
23616;BME280;11985;49.404;7.734;2024-02-23T16:45:48;95312.53;;;4.96;100.00
23616;BME280;11985;49.404;7.734;2024-02-23T16:50:51;95298.03;;;4.82;100.00
23616;BME280;11985;49.404;7.734;2024-02-23T16:55:53;95299.41;;;4.66;100.00
23616;BME280;11985;49.404;7.734;2024-02-23T17:00:56;95289.56;;;4.50;100.00
23616;BME280;11985;49.404;7.734;2024-02-23T17:06:00;95305.91;;;4.39;100.00
23616;BME280;11985;49.404;7.734;2024-02-23T17:11:04;95322.66;;;4.24;100.00
23616;BME280;11985;49.404;7.734;2024-02-23T17:16:06;95331.50;;;4.23;100.00
23616;BME280;11985;49.404;7.734;2024-02-23T17:21:10;95325.09;;;4.19;100.00
23616;BME280;11985;49.404;7.734;2024-02-23T17:26:11;95326.44;;;4.04;100.00
23616;BME280;11985;49.404;7.734;2024-02-23T17:31:13;95331.31;;;3.93;100.00
23616;BME280;11985;49.404;7.734;2024-02-23T17:36:17;95329.25;;;4.02;100.00
23616;BME280;11985;49.404;7.734;2024-02-23T17:41:18;95325.97;;;4.13;100.00
23616;BME280;11985;49.404;7.734;2024-02-23T17:46:20;95329.91;;;4.22;100.00
23616;BME280;11985;49.404;7.734;2024-02-23T17:51:23;95327.34;;;4.16;100.00
23616;BME280;11985;49.404;7.734;2024-02-23T17:56:24;95323.19;;;4.08;100.00
23616;BME280;11985;49.404;7.734;2024-02-23T18:01:26;95325.63;;;4.03;100.00
23616;BME280;11985;49.404;7.734;2024-02-23T18:06:29;95334.03;;;4.05;100.00
23616;BME280;11985;49.404;7.734;2024-02-23T18:11:30;95338.09;;;4.01;100.00
23616;BME280;11985;49.404;7.734;2024-02-23T18:16:32;95336.91;;;3.97;100.00
23616;BME280;11985;49.404;7.734;2024-02-23T18:21:35;95341.38;;;3.90;100.00
23616;BME280;11985;49.404;7.734;2024-02-23T18:26:36;95353.03;;;3.81;100.00
23616;BME280;11985;49.404;7.734;2024-02-23T18:31:38;95367.28;;;3.78;100.00
23616;BME280;11985;49.404;7.734;2024-02-23T18:36:41;95348.16;;;3.91;100.00
23616;BME280;11985;49.404;7.734;2024-02-23T18:41:43;95354.63;;;4.13;100.00
23616;BME280;11985;49.404;7.734;2024-02-23T18:46:44;95349.13;;;4.21;100.00
23616;BME280;11985;49.404;7.734;2024-02-23T18:51:47;95361.25;;;4.09;100.00
23616;BME280;11985;49.404;7.734;2024-02-23T18:56:51;95350.88;;;4.03;100.00
23616;BME280;11985;49.404;7.734;2024-02-23T19:01:53;95343.38;;;3.88;100.00
23616;BME280;11985;49.404;7.734;2024-02-23T19:06:56;95339.09;;;3.68;100.00
23616;BME280;11985;49.404;7.734;2024-02-23T19:11:57;95343.59;;;3.48;100.00
23616;BME280;11985;49.404;7.734;2024-02-23T19:17:01;95346.13;;;3.23;100.00
23616;BME280;11985;49.404;7.734;2024-02-23T19:22:04;95347.56;;;3.12;100.00
23616;BME280;11985;49.404;7.734;2024-02-23T19:27:06;95337.78;;;3.08;100.00
23616;BME280;11985;49.404;7.734;2024-02-23T19:32:07;95333.78;;;3.05;100.00
23616;BME280;11985;49.404;7.734;2024-02-23T19:37:10;95343.81;;;3.02;100.00
23616;BME280;11985;49.404;7.734;2024-02-23T19:42:12;95346.25;;;2.90;100.00
23616;BME280;11985;49.404;7.734;2024-02-23T19:47:14;95355.63;;;2.91;100.00
23616;BME280;11985;49.404;7.734;2024-02-23T19:52:17;95355.22;;;2.94;100.00
23616;BME280;11985;49.404;7.734;2024-02-23T19:57:18;95355.06;;;2.89;100.00
23616;BME280;11985;49.404;7.734;2024-02-23T20:02:20;95365.09;;;2.65;100.00
23616;BME280;11985;49.404;7.734;2024-02-23T20:07:23;95353.94;;;2.45;100.00
23616;BME280;11985;49.404;7.734;2024-02-23T20:12:24;95357.53;;;2.37;100.00
23616;BME280;11985;49.404;7.734;2024-02-23T20:17:26;95355.53;;;2.33;100.00
23616;BME280;11985;49.404;7.734;2024-02-23T20:22:30;95351.13;;;2.27;100.00
23616;BME280;11985;49.404;7.734;2024-02-23T20:27:32;95343.94;;;2.16;100.00
23616;BME280;11985;49.404;7.734;2024-02-23T20:32:34;95339.16;;;2.13;100.00
23616;BME280;11985;49.404;7.734;2024-02-23T20:37:37;95343.56;;;2.12;100.00
23616;BME280;11985;49.404;7.734;2024-02-23T20:42:39;95349.34;;;2.07;100.00
23616;BME280;11985;49.404;7.734;2024-02-23T20:47:41;95341.16;;;2.17;100.00
23616;BME280;11985;49.404;7.734;2024-02-23T20:52:44;95341.16;;;2.24;100.00
23616;BME280;11985;49.404;7.734;2024-02-23T20:57:45;95331.34;;;2.26;100.00
23616;BME280;11985;49.404;7.734;2024-02-23T21:02:47;95332.16;;;2.26;100.00
23616;BME280;11985;49.404;7.734;2024-02-23T21:07:50;95333.38;;;2.24;100.00
23616;BME280;11985;49.404;7.734;2024-02-23T21:12:52;95330.34;;;2.27;100.00
23616;BME280;11985;49.404;7.734;2024-02-23T21:17:53;95336.75;;;2.31;100.00
23616;BME280;11985;49.404;7.734;2024-02-23T21:22:56;95343.16;;;2.35;100.00
23616;BME280;11985;49.404;7.734;2024-02-23T21:27:58;95353.53;;;2.42;100.00
23616;BME280;11985;49.404;7.734;2024-02-23T21:32:59;95351.34;;;2.45;100.00
23616;BME280;11985;49.404;7.734;2024-02-23T21:38:03;95369.31;;;2.40;100.00
23616;BME280;11985;49.404;7.734;2024-02-23T21:43:04;95402.28;;;2.46;100.00
23616;BME280;11985;49.404;7.734;2024-02-23T21:48:07;95408.88;;;2.69;100.00
23616;BME280;11985;49.404;7.734;2024-02-23T21:53:10;95404.63;;;2.94;100.00
23616;BME280;11985;49.404;7.734;2024-02-23T21:58:11;95397.56;;;3.14;100.00
23616;BME280;11985;49.404;7.734;2024-02-23T22:03:13;95416.94;;;3.32;100.00
23616;BME280;11985;49.404;7.734;2024-02-23T22:08:16;95418.53;;;3.33;100.00
23616;BME280;11985;49.404;7.734;2024-02-23T22:13:18;95428.56;;;3.29;100.00
23616;BME280;11985;49.404;7.734;2024-02-23T22:18:19;95423.00;;;3.19;100.00
23616;BME280;11985;49.404;7.734;2024-02-23T22:23:22;95420.59;;;3.04;100.00
23616;BME280;11985;49.404;7.734;2024-02-23T22:28:24;95424.84;;;2.92;100.00
23616;BME280;11985;49.404;7.734;2024-02-23T22:33:25;95428.66;;;2.83;100.00
23616;BME280;11985;49.404;7.734;2024-02-23T22:38:28;95401.09;;;2.69;100.00
23616;BME280;11985;49.404;7.734;2024-02-23T22:43:30;95395.91;;;2.62;100.00
23616;BME280;11985;49.404;7.734;2024-02-23T22:48:31;95400.91;;;2.50;100.00
23616;BME280;11985;49.404;7.734;2024-02-23T22:53:34;95380.53;;;2.34;100.00
23616;BME280;11985;49.404;7.734;2024-02-23T22:58:36;95382.72;;;2.24;100.00
23616;BME280;11985;49.404;7.734;2024-02-23T23:03:37;95379.13;;;2.18;100.00
23616;BME280;11985;49.404;7.734;2024-02-23T23:08:40;95392.28;;;2.10;100.00
23616;BME280;11985;49.404;7.734;2024-02-23T23:13:42;95395.47;;;2.05;100.00
23616;BME280;11985;49.404;7.734;2024-02-23T23:18:43;95382.69;;;2.10;100.00
23616;BME280;11985;49.404;7.734;2024-02-23T23:23:46;95380.28;;;2.16;100.00
23616;BME280;11985;49.404;7.734;2024-02-23T23:28:48;95392.31;;;2.17;100.00
23616;BME280;11985;49.404;7.734;2024-02-23T23:33:50;95393.50;;;2.21;100.00
23616;BME280;11985;49.404;7.734;2024-02-23T23:38:54;95409.47;;;2.24;100.00
23616;BME280;11985;49.404;7.734;2024-02-23T23:43:56;95393.50;;;2.27;100.00
23616;BME280;11985;49.404;7.734;2024-02-23T23:48:58;95405.88;;;2.32;100.00
23616;BME280;11985;49.404;7.734;2024-02-23T23:54:00;95402.50;;;2.25;100.00
23616;BME280;11985;49.404;7.734;2024-02-23T23:59:02;95428.66;;;2.17;100.00
